Time;durP1;ratioP1;P1;durP2;ratioP2;P2;SDS_P1;SDS_P2;PMS_P1;PMS_P2;Temp;Humidity;BMP_temperature;BMP_pressure;BME280_temperature;BME280_humidity;BME280_pressure;Samples;Min_cycle;Max_cycle;Signal;HPM_P1;HPM_P2
2021/04/11 00:00:30;;;;;;;5.10;4.70;;;;;;;8.90;76.58;97450.34;5057418;28;20237;-75
2021/04/11 00:02:58;;;;;;;5.27;4.80;;;;;;;8.83;76.77;97444.91;5059022;28;20642;-75
2021/04/11 00:05:30;;;;;;;5.53;5.13;;;;;;;8.75;76.86;97439.63;5059878;28;20202;-72
2021/04/11 00:07:57;;;;;;;5.93;5.20;;;;;;;8.68;77.75;97439.44;5060549;28;20214;-76
2021/04/11 00:10:27;;;;;;;5.63;5.13;;;;;;;8.57;77.68;97432.72;5058514;28;20711;-76
2021/04/11 00:12:54;;;;;;;4.97;4.63;;;;;;;8.56;77.87;97436.34;5054272;28;20663;-76
2021/04/11 00:15:22;;;;;;;5.77;5.27;;;;;;;8.43;78.59;97428.03;5056492;28;20624;-76
2021/04/11 00:17:49;;;;;;;5.50;5.17;;;;;;;8.37;79.43;97429.53;5060267;28;20298;-75
2021/04/11 00:20:17;;;;;;;5.63;5.13;;;;;;;8.42;78.38;97434.31;5061523;28;20793;-76
2021/04/11 00:22:44;;;;;;;6.27;5.43;;;;;;;8.46;78.33;97432.97;5057142;28;20598;-76
2021/04/11 00:25:16;;;;;;;5.67;5.13;;;;;;;8.29;79.67;97422.41;5062261;28;20659;-76
2021/04/11 00:27:44;;;;;;;5.40;4.90;;;;;;;8.50;78.45;97421.97;5056786;28;20199;-76
2021/04/11 00:30:13;;;;;;;5.43;4.93;;;;;;;8.36;79.02;97423.41;5061109;28;20238;-75
2021/04/11 00:32:40;;;;;;;5.57;5.17;;;;;;;8.23;79.92;97423.88;5061711;28;20294;-76
2021/04/11 00:35:08;;;;;;;5.33;4.93;;;;;;;8.19;80.55;97416.47;5058857;28;20206;-76
2021/04/11 00:37:36;;;;;;;8.20;5.33;;;;;;;8.22;80.31;97413.50;5058503;28;20849;-76
2021/04/11 00:40:08;;;;;;;7.63;5.73;;;;;;;8.23;80.13;97415.16;5058645;28;20250;-75
2021/04/11 00:42:40;;;;;;;5.73;5.23;;;;;;;8.21;80.09;97417.13;5059267;28;20207;-76
2021/04/11 00:45:16;;;;;;;5.87;5.47;;;;;;;8.15;80.56;97412.50;5062499;28;20203;-75
2021/04/11 00:47:43;;;;;;;5.00;4.70;;;;;;;8.14;81.23;97405.56;5062495;28;20322;-76
2021/04/11 00:50:13;;;;;;;6.07;5.50;;;;;;;8.18;80.72;97406.91;5062383;28;20322;-75
2021/04/11 00:52:40;;;;;;;5.83;5.40;;;;;;;8.18;80.79;97407.72;5062388;28;20203;-76
2021/04/11 00:55:09;;;;;;;5.13;4.63;;;;;;;8.13;81.09;97403.91;5064264;28;20585;-76
2021/04/11 00:57:37;;;;;;;5.17;4.77;;;;;;;8.08;81.20;97399.13;5060443;28;20362;-76
2021/04/11 01:00:06;;;;;;;5.47;5.00;;;;;;;8.10;80.86;97397.16;5065726;28;20237;-76
2021/04/11 01:02:34;;;;;;;5.03;4.73;;;;;;;8.17;80.88;97392.06;5062096;28;20623;-76
2021/04/11 01:05:01;;;;;;;5.50;5.10;;;;;;;8.13;80.78;97390.72;5063553;28;20207;-76
2021/04/11 01:07:29;;;;;;;6.30;5.00;;;;;;;8.15;80.65;97392.22;5062775;28;20215;-76
2021/04/11 01:09:56;;;;;;;5.77;4.73;;;;;;;8.23;80.62;97391.41;5059906;28;20227;-76
2021/04/11 01:12:24;;;;;;;5.83;5.43;;;;;;;8.39;79.47;97394.03;5063054;28;20211;-75
2021/04/11 01:14:52;;;;;;;5.60;5.17;;;;;;;8.21;79.89;97393.38;5064153;28;20579;-76
2021/04/11 01:17:21;;;;;;;5.90;5.27;;;;;;;8.16;80.78;97391.22;5062616;28;20290;-75
2021/04/11 01:19:51;;;;;;;5.67;5.10;;;;;;;8.17;80.42;97384.16;5062818;28;20227;-76
2021/04/11 01:22:24;;;;;;;6.53;4.97;;;;;;;8.08;81.15;97381.47;5061217;28;20211;-76
2021/04/11 01:24:54;;;;;;;5.93;5.27;;;;;;;8.05;81.64;97376.53;5063419;28;20635;-76
2021/04/11 01:27:23;;;;;;;6.27;5.07;;;;;;;8.10;80.75;97368.94;5059737;28;20634;-76
2021/04/11 01:29:52;;;;;;;6.30;5.80;;;;;;;8.22;80.09;97379.19;5064013;28;20229;-76
2021/04/11 01:32:19;;;;;;;5.50;5.10;;;;;;;8.24;79.80;97372.75;5064672;28;20218;-75
2021/04/11 01:34:47;;;;;;;5.27;4.87;;;;;;;8.16;80.37;97369.28;5057968;28;20203;-75
2021/04/11 01:37:16;;;;;;;5.27;4.87;;;;;;;8.22;80.18;97368.63;5063389;28;20515;-76
2021/04/11 01:39:44;;;;;;;5.87;5.47;;;;;;;8.10;80.86;97362.84;5062663;28;20237;-76
2021/04/11 01:42:14;;;;;;;5.87;5.37;;;;;;;8.25;79.64;97363.03;5063380;28;20203;-77
2021/04/11 01:44:44;;;;;;;5.83;5.33;;;;;;;8.13;79.85;97353.75;5061922;28;20215;-77
2021/04/11 01:47:13;;;;;;;7.87;5.50;;;;;;;8.26;79.42;97356.75;5062929;28;20199;-77
2021/04/11 01:49:42;;;;;;;5.80;5.40;;;;;;;8.33;77.86;97367.47;5062664;28;20229;-76
2021/04/11 01:52:12;;;;;;;5.87;5.43;;;;;;;8.25;78.47;97365.66;5062514;28;20541;-76
2021/04/11 01:54:39;;;;;;;5.33;4.77;;;;;;;8.21;78.60;97362.53;5055049;28;20311;-76
2021/04/11 01:57:09;;;;;;;5.83;5.43;;;;;;;8.19;78.26;97353.94;5060223;28;20238;-76
2021/04/11 01:59:37;;;;;;;5.40;4.93;;;;;;;8.28;78.02;97361.84;5061835;28;20219;-76
2021/04/11 02:02:06;;;;;;;5.53;4.93;;;;;;;8.15;78.59;97357.91;5057574;28;20207;-77
2021/04/11 02:04:34;;;;;;;6.27;5.47;;;;;;;8.03;79.76;97360.03;5059042;28;20648;-76
2021/04/11 02:07:02;;;;;;;5.20;4.73;;;;;;;8.15;79.32;97355.25;5056230;28;20209;-76
2021/04/11 02:09:34;;;;;;;5.40;5.00;;;;;;;8.20;79.11;97354.78;5060104;28;20226;-75
2021/04/11 02:12:02;;;;;;;5.93;5.43;;;;;;;8.08;79.68;97354.28;5062742;28;20203;-76
2021/04/11 02:14:30;;;;;;;5.50;5.10;;;;;;;8.06;79.73;97343.06;5062075;28;20217;-76
2021/04/11 02:16:59;;;;;;;4.93;4.60;;;;;;;8.09;78.83;97334.81;5062906;28;20688;-76
2021/04/11 02:19:30;;;;;;;5.20;4.70;;;;;;;8.17;79.41;97334.00;5062526;28;20241;-76
2021/04/11 02:22:00;;;;;;;5.93;5.40;;;;;;;8.17;79.41;97345.38;5059812;28;20214;-75
2021/04/11 02:24:27;;;;;;;6.87;5.00;;;;;;;8.13;79.27;97330.00;5062698;28;20302;-76
2021/04/11 02:26:54;;;;;;;6.03;5.63;;;;;;;8.14;79.55;97329.84;5062659;28;20750;-76
2021/04/11 02:29:24;;;;;;;5.50;5.10;;;;;;;8.18;78.77;97330.38;5061800;28;20233;-76
2021/04/11 02:31:51;;;;;;;6.13;5.53;;;;;;;8.18;78.82;97333.81;5062673;28;20290;-76
2021/04/11 02:34:23;;;;;;;6.03;5.30;;;;;;;7.97;80.26;97329.03;5063470;28;20214;-76
2021/04/11 02:36:54;;;;;;;6.33;5.80;;;;;;;8.03;79.77;97317.81;5061136;28;20203;-76
2021/04/11 02:39:25;;;;;;;5.33;4.93;;;;;;;8.01;79.82;97322.44;5060683;28;20314;-75
2021/04/11 02:41:53;;;;;;;5.67;5.17;;;;;;;7.80;80.81;97331.66;5061765;28;20250;-76
2021/04/11 02:44:21;;;;;;;5.20;4.73;;;;;;;7.74;81.90;97329.63;5062369;28;20230;-76
2021/04/11 02:46:49;;;;;;;5.70;5.20;;;;;;;7.81;80.58;97328.03;5059111;28;20202;-76
2021/04/11 02:49:20;;;;;;;6.63;6.13;;;;;;;7.79;81.20;97329.16;5059899;28;20941;-76
2021/04/11 02:51:49;;;;;;;6.00;5.40;;;;;;;7.88;80.40;97328.19;5060446;28;20317;-76
2021/04/11 02:54:18;;;;;;;5.93;5.43;;;;;;;7.84;80.67;97331.31;5059778;28;20206;-77
2021/04/11 02:56:46;;;;;;;5.97;5.47;;;;;;;7.84;80.74;97326.88;5061658;28;20444;-76
2021/04/11 02:59:15;;;;;;;5.70;5.27;;;;;;;7.77;81.33;97325.88;5059380;28;20226;-74
2021/04/11 03:01:45;;;;;;;7.43;6.27;;;;;;;7.66;81.84;97324.34;5061671;28;20211;-76
2021/04/11 03:04:14;;;;;;;5.67;5.27;;;;;;;7.81;80.61;97320.13;5061936;28;20199;-76
2021/04/11 03:06:43;;;;;;;6.13;5.50;;;;;;;7.91;80.19;97324.41;5057240;28;20209;-77
2021/04/11 03:09:16;;;;;;;6.73;5.50;;;;;;;7.93;79.80;97323.25;5060485;28;20237;-76
2021/04/11 03:11:45;;;;;;;6.07;5.67;;;;;;;7.85;79.78;97328.50;5060645;28;20273;-76
2021/04/11 03:14:14;;;;;;;6.63;5.93;;;;;;;7.87;79.54;97326.53;5060382;28;20209;-77
2021/04/11 03:16:42;;;;;;;6.13;5.63;;;;;;;7.80;79.90;97323.75;5058659;28;20214;-77
2021/04/11 03:19:09;;;;;;;6.17;5.43;;;;;;;7.91;79.26;97321.75;5060831;28;20321;-77
2021/04/11 03:21:40;;;;;;;6.77;6.17;;;;;;;7.90;78.88;97325.41;5062086;28;20214;-76
2021/04/11 03:24:08;;;;;;;6.07;5.53;;;;;;;7.89;78.86;97321.09;5062303;28;20293;-76
2021/04/11 03:26:38;;;;;;;6.00;5.50;;;;;;;7.80;79.49;97323.75;5059110;28;20297;-77
2021/04/11 03:29:09;;;;;;;5.73;5.23;;;;;;;7.94;78.62;97324.06;5059042;28;20222;-76
2021/04/11 03:31:41;;;;;;;6.17;5.63;;;;;;;7.94;78.77;97322.25;5055659;28;20214;-76
2021/04/11 03:34:11;;;;;;;5.80;5.30;;;;;;;7.94;78.08;97326.72;5059331;28;20444;-76
2021/04/11 03:36:41;;;;;;;6.50;5.90;;;;;;;7.86;79.35;97324.88;5061450;28;20280;-76
2021/04/11 03:39:09;;;;;;;6.43;5.83;;;;;;;7.91;79.92;97324.41;5060371;28;20686;-74
2021/04/11 03:41:38;;;;;;;9.13;6.10;;;;;;;7.92;78.51;97326.06;5053877;28;20298;-75
2021/04/11 03:44:08;;;;;;;6.80;5.97;;;;;;;7.90;78.88;97320.13;5054097;28;20749;-74
2021/04/11 03:46:40;;;;;;;6.03;5.47;;;;;;;8.09;77.60;97332.97;5057930;28;20200;-72
2021/04/11 03:49:12;;;;;;;6.20;5.73;;;;;;;7.76;79.01;97332.94;5059733;28;20227;-74
2021/04/11 03:51:41;;;;;;;7.87;5.90;;;;;;;7.85;78.80;97335.63;5057546;28;20237;-72
2021/04/11 03:54:11;;;;;;;6.27;5.70;;;;;;;7.88;78.24;97327.38;5056742;28;20289;-71
2021/04/11 03:56:41;;;;;;;6.70;6.00;;;;;;;7.90;78.21;97325.41;5060644;28;20199;-69
2021/04/11 03:59:10;;;;;;;5.30;4.90;;;;;;;8.01;77.85;97316.34;5056860;28;20229;-72
2021/04/11 04:01:42;;;;;;;6.23;5.70;;;;;;;8.01;77.25;97324.25;5058142;28;20202;-72
2021/04/11 04:04:13;;;;;;;8.23;5.90;;;;;;;7.93;77.45;97317.16;5058570;28;20205;-72
2021/04/11 04:06:56;;;;;;;5.80;5.20;;;;;;;7.90;78.46;97320.13;5059209;28;20207;-72
2021/04/11 04:09:23;;;;;;;6.93;6.33;;;;;;;7.68;78.74;97317.94;5054812;28;20992;-72
2021/04/11 04:12:17;;;;;;;6.37;5.77;;;;;;;7.61;78.95;97316.94;5056018;28;20740;-71
2021/04/11 04:14:55;;;;;;;6.70;6.07;;;;;;;7.52;79.43;97323.16;5054192;28;20205;-71
2021/04/11 04:17:27;;;;;;;6.80;6.00;;;;;;;7.43;80.32;97317.06;5060091;28;20205;-71
2021/04/11 04:20:05;;;;;;;7.57;6.00;;;;;;;7.32;81.34;97318.19;5061434;28;20222;-72
2021/04/11 04:22:38;;;;;;;6.97;6.27;;;;;;;7.31;81.36;97320.97;5062744;28;20306;-73
2021/04/11 04:25:15;;;;;;;7.07;6.50;;;;;;;7.31;81.13;97328.88;5061810;28;20293;-72
2021/04/11 04:28:06;;;;;;;7.07;6.43;;;;;;;7.16;81.96;97329.50;5061977;28;20214;-72
2021/04/11 04:30:47;;;;;;;7.70;5.67;;;;;;;7.06;82.04;97337.50;5062601;28;20608;-72
2021/04/11 04:33:22;;;;;;;6.60;6.13;;;;;;;6.95;83.15;97335.97;5058919;28;20214;-72
2021/04/11 04:35:54;;;;;;;7.37;6.53;;;;;;;6.89;83.36;97336.59;5063757;28;20650;-72
2021/04/11 04:38:25;;;;;;;6.50;6.00;;;;;;;6.89;83.67;97336.59;5062089;28;20681;-71
2021/04/11 04:41:04;;;;;;;8.63;6.17;;;;;;;7.08;82.82;97340.81;5062779;28;20222;-70
2021/04/11 04:43:45;;;;;;;6.23;5.83;;;;;;;6.87;83.60;97340.41;5064620;28;20203;-70
2021/04/11 04:46:15;;;;;;;6.40;5.80;;;;;;;6.89;84.14;97347.13;5058319;28;20310;-71
2021/04/11 04:48:57;;;;;;;6.73;6.23;;;;;;;6.89;83.86;97347.13;5062304;28;20980;-73
2021/04/11 04:51:28;;;;;;;7.20;6.50;;;;;;;6.94;83.87;97350.13;5063208;28;20219;-73
2021/04/11 04:54:02;;;;;;;7.17;6.57;;;;;;;7.10;83.88;97340.66;5065693;28;20241;-74
2021/04/11 04:56:33;;;;;;;6.37;5.77;;;;;;;7.17;82.87;97348.75;5061171;28;20202;-74
2021/04/11 04:59:05;;;;;;;6.67;6.17;;;;;;;7.19;83.05;97347.63;5064525;28;20201;-74
2021/04/11 05:01:36;;;;;;;6.87;6.27;;;;;;;7.14;83.14;97351.69;5062343;28;20744;-74
2021/04/11 05:04:08;;;;;;;6.50;6.00;;;;;;;7.32;81.85;97354.25;5059392;28;20218;-71
2021/04/11 05:06:38;;;;;;;7.03;6.47;;;;;;;7.39;81.86;97348.19;5062531;28;20210;-74
2021/04/11 05:09:07;;;;;;;6.60;6.10;;;;;;;7.46;81.17;97352.81;5064985;28;20218;-73
2021/04/11 05:11:39;;;;;;;6.93;6.40;;;;;;;7.46;81.38;97344.91;5064583;28;20199;-73
2021/04/11 05:14:09;;;;;;;6.43;5.83;;;;;;;7.70;79.60;97343.34;5062487;28;20211;-73
2021/04/11 05:16:38;;;;;;;6.60;6.10;;;;;;;7.86;78.82;97353.09;5063222;28;20191;-73
2021/04/11 05:19:08;;;;;;;7.27;6.70;;;;;;;8.02;78.10;97349.66;5062562;28;20219;-73
2021/04/11 05:21:38;;;;;;;7.93;7.10;;;;;;;7.88;78.90;97351.94;5060689;28;20211;-73
2021/04/11 05:24:08;;;;;;;6.67;6.10;;;;;;;8.09;78.01;97354.09;5060046;28;20203;-75
2021/04/11 05:26:41;;;;;;;7.20;6.60;;;;;;;8.16;77.41;97354.28;5062073;28;20202;-72
2021/04/11 05:29:15;;;;;;;6.83;6.13;;;;;;;8.25;76.75;97361.19;5061096;28;20226;-73
2021/04/11 05:31:42;;;;;;;6.67;5.90;;;;;;;8.31;76.57;97359.72;5058958;28;20210;-73
2021/04/11 05:34:12;;;;;;;6.50;5.77;;;;;;;8.42;76.21;97355.94;5061330;28;20231;-74
2021/04/11 05:36:47;;;;;;;6.97;6.47;;;;;;;8.39;76.34;97356.25;5063882;28;20663;-74
2021/04/11 05:39:22;;;;;;;7.77;6.97;;;;;;;8.46;76.02;97359.03;5059665;28;20421;-73
2021/04/11 05:41:59;;;;;;;7.30;6.70;;;;;;;8.64;74.59;97359.72;5057158;28;21005;-74
2021/04/11 05:44:30;;;;;;;8.07;6.23;;;;;;;8.73;75.25;97359.72;5062037;28;20291;-73
2021/04/11 05:47:00;;;;;;;7.03;6.47;;;;;;;8.72;75.62;97358.06;5063806;28;20199;-72
2021/04/11 05:49:32;;;;;;;6.63;6.03;;;;;;;8.78;74.88;97362.66;5062035;28;20219;-72
2021/04/11 05:52:02;;;;;;;7.17;6.53;;;;;;;8.74;75.59;97364.00;5061314;28;20217;-73
2021/04/11 05:54:33;;;;;;;7.90;6.47;;;;;;;8.79;74.19;97356.41;5062209;28;20195;-73
2021/04/11 05:57:03;;;;;;;6.60;6.10;;;;;;;8.96;73.27;97360.66;5061404;28;20216;-74
2021/04/11 05:59:33;;;;;;;7.43;6.40;;;;;;;9.03;72.50;97358.16;5062507;28;20219;-74
2021/04/11 06:02:01;;;;;;;7.30;6.60;;;;;;;9.00;72.76;97362.97;5063432;28;20219;-73
2021/04/11 06:04:34;;;;;;;7.50;6.90;;;;;;;9.15;71.85;97360.44;5061290;28;20219;-73
2021/04/11 06:07:09;;;;;;;7.00;6.50;;;;;;;9.21;71.33;97363.22;5059869;28;20635;-72
2021/04/11 06:09:39;;;;;;;7.23;6.63;;;;;;;9.10;71.95;97366.22;5060706;28;20238;-73
2021/04/11 06:12:10;;;;;;;7.67;6.10;;;;;;;9.31;71.14;97368.31;5061015;28;20590;-73
2021/04/11 06:14:55;;;;;;;6.30;5.70;;;;;;;9.35;70.36;97366.16;5061173;28;20306;-72
2021/04/11 06:17:22;;;;;;;7.10;6.50;;;;;;;9.47;70.03;97370.06;5061733;28;20203;-76
2021/04/11 06:19:50;;;;;;;6.90;6.40;;;;;;;9.58;69.96;97366.22;5060236;28;20309;-75
2021/04/11 06:22:21;;;;;;;6.70;6.10;;;;;;;9.67;69.19;97364.34;5061060;28;20713;-76
2021/04/11 06:24:51;;;;;;;6.37;5.67;;;;;;;9.77;68.74;97361.47;5063217;28;20572;-76
2021/04/11 06:27:28;;;;;;;7.20;6.60;;;;;;;10.01;67.80;97367.63;5060810;28;20217;-74
2021/04/11 06:29:59;;;;;;;8.60;7.03;;;;;;;10.25;66.51;97361.31;5061774;28;20227;-74
2021/04/11 06:32:27;;;;;;;7.67;6.97;;;;;;;10.17;66.31;97364.03;5061452;28;20219;-74
2021/04/11 06:34:59;;;;;;;6.30;5.90;;;;;;;10.14;66.38;97359.91;5061996;28;20222;-76
2021/04/11 06:37:27;;;;;;;6.53;5.93;;;;;;;10.39;65.72;97359.72;5060940;28;20217;-75
2021/04/11 06:39:56;;;;;;;6.80;6.30;;;;;;;10.45;65.36;97363.53;5059666;28;20229;-74
2021/04/11 06:42:37;;;;;;;7.20;6.60;;;;;;;10.51;66.19;97355.66;5059042;28;20202;-73
2021/04/11 06:45:18;;;;;;;7.23;6.63;;;;;;;10.49;66.06;97349.72;5056871;28;20213;-75
2021/04/11 06:48:25;;;;;;;6.30;5.80;;;;;;;10.64;64.99;97355.06;5059741;28;20309;-74
2021/04/11 06:51:22;;;;;;;6.77;6.23;;;;;;;10.78;65.24;97352.59;5056453;28;20238;-73
2021/04/11 06:54:24;;;;;;;8.80;6.67;;;;;;;10.93;64.92;97352.63;5061297;28;20341;-73
2021/04/11 06:57:10;;;;;;;6.50;5.90;;;;;;;11.29;63.45;97338.63;5059381;28;20294;-75
2021/04/11 06:59:46;;;;;;;6.77;6.27;;;;;;;11.35;64.42;97342.38;5058963;28;20849;-74
2021/04/11 07:02:50;;;;;;;6.20;5.80;;;;;;;11.43;62.36;97342.25;5059910;28;20297;-74
2021/04/11 07:05:35;;;;;;;7.07;6.27;;;;;;;11.49;62.41;97344.16;5057533;28;20551;-75
2021/04/11 07:08:26;;;;;;;6.67;6.17;;;;;;;11.35;62.74;97345.03;5058661;28;20358;-73
2021/04/11 07:11:28;;;;;;;7.20;6.50;;;;;;;11.48;61.86;97336.41;5059569;28;20717;-72
2021/04/11 07:14:36;;;;;;;6.83;6.33;;;;;;;11.50;61.66;97340.50;5018546;28;20222;-74
2021/04/11 07:17:35;;;;;;;6.77;6.17;;;;;;;11.67;61.20;97338.47;5058228;28;20203;-75
2021/04/11 07:20:39;;;;;;;6.67;6.23;;;;;;;11.81;60.28;97331.47;5056169;28;20242;-75
2021/04/11 07:23:30;;;;;;;7.13;6.53;;;;;;;11.88;60.11;97340.31;5059108;28;20253;-75
2021/04/11 07:26:12;;;;;;;7.23;6.53;;;;;;;12.28;58.70;97341.75;5062417;28;20665;-76
2021/04/11 07:28:50;;;;;;;6.83;6.23;;;;;;;12.45;60.13;97337.81;5059053;28;20210;-75
2021/04/11 07:31:35;;;;;;;6.93;6.43;;;;;;;12.46;58.89;97349.25;5058495;28;20225;-75
2021/04/11 07:34:12;;;;;;;7.83;6.27;;;;;;;12.56;59.31;97344.44;5058503;28;20550;-75
2021/04/11 07:36:46;;;;;;;6.50;5.97;;;;;;;12.54;59.82;97341.16;5061034;28;20769;-75
2021/04/11 07:39:28;;;;;;;7.73;6.13;;;;;;;12.78;59.26;97335.59;5060138;28;20222;-76
2021/04/11 07:42:08;;;;;;;10.13;6.20;;;;;;;12.91;56.69;97345.50;5060236;28;20210;-75
2021/04/11 07:44:44;;;;;;;7.67;6.87;;;;;;;13.11;56.40;97340.31;5060582;28;20290;-75
2021/04/11 07:47:20;;;;;;;6.77;6.17;;;;;;;13.23;55.92;97345.88;5058526;28;20843;-75
2021/04/11 07:50:05;;;;;;;8.40;6.43;;;;;;;13.15;55.08;97344.22;5058956;28;20222;-73
2021/04/11 07:52:49;;;;;;;6.13;5.63;;;;;;;13.36;55.25;97342.47;5058533;28;20195;-73
2021/04/11 07:55:22;;;;;;;6.47;5.90;;;;;;;13.48;54.55;97337.44;5059777;28;20198;-73
2021/04/11 07:58:08;;;;;;;5.67;5.17;;;;;;;13.67;53.59;97341.19;5057786;28;20414;-72
2021/04/11 08:00:55;;;;;;;6.23;5.63;;;;;;;13.78;52.49;97337.13;5052997;28;20301;-73
2021/04/11 08:03:38;;;;;;;5.70;5.23;;;;;;;14.02;51.81;97336.56;5058352;28;20230;-71
2021/04/11 08:06:20;;;;;;;5.70;5.20;;;;;;;14.22;52.04;97337.63;5058455;28;20201;-73
2021/04/11 08:09:08;;;;;;;5.57;5.17;;;;;;;14.64;50.69;97335.56;5060692;28;20307;-74
2021/04/11 08:12:14;;;;;;;4.93;4.53;;;;;;;14.69;50.21;97338.44;5061097;28;20214;-74
2021/04/11 08:14:47;;;;;;;4.57;4.27;;;;;;;14.70;49.99;97336.56;5060381;28;20199;-75
2021/04/11 08:17:39;;;;;;;5.30;4.53;;;;;;;14.99;49.46;97338.03;5055298;28;20198;-74
2021/04/11 08:20:41;;;;;;;4.10;3.80;;;;;;;15.27;47.93;97326.22;5061218;28;20400;-73
2021/04/11 08:23:49;;;;;;;4.87;4.20;;;;;;;15.69;47.46;97325.03;5058462;28;20769;-73
2021/04/11 08:26:56;;;;;;;3.23;3.03;;;;;;;15.84;44.84;97319.41;5060642;28;20298;-72
2021/04/11 08:29:38;;;;;;;3.27;2.93;;;;;;;16.05;43.73;97311.09;5059366;28;20234;-69
2021/04/11 08:32:30;;;;;;;2.90;2.60;;;;;;;16.02;44.25;97316.03;5058859;28;20659;-72
2021/04/11 08:35:11;;;;;;;3.23;2.70;;;;;;;16.18;44.40;97318.19;5057960;28;20210;-70
2021/04/11 08:37:52;;;;;;;3.40;3.20;;;;;;;16.46;44.53;97316.94;5060075;28;20210;-72
2021/04/11 08:40:33;;;;;;;2.80;2.60;;;;;;;16.78;43.71;97321.41;5056742;28;20233;-72
2021/04/11 08:43:21;;;;;;;2.80;2.33;;;;;;;17.12;41.44;97323.75;5059635;28;20913;-72
2021/04/11 08:45:59;;;;;;;3.60;3.40;;;;;;;17.29;41.08;97319.47;5057436;28;20503;-73
2021/04/11 08:48:46;;;;;;;2.90;2.70;;;;;;;17.44;40.98;97320.94;5057085;28;20249;-75
2021/04/11 08:51:22;;;;;;;3.17;2.97;;;;;;;17.30;40.56;97321.09;5059435;28;20698;-74
2021/04/11 08:53:57;;;;;;;2.40;2.30;;;;;;;17.17;40.30;97324.75;5059884;28;20213;-75
2021/04/11 08:56:30;;;;;;;3.33;1.97;;;;;;;17.23;40.75;97320.34;5060678;28;20636;-75
2021/04/11 08:59:02;;;;;;;2.87;2.10;;;;;;;16.93;40.30;97319.19;5060043;28;20294;-76
2021/04/11 09:01:40;;;;;;;2.87;2.10;;;;;;;17.09;39.62;97321.53;5056702;28;20449;-76
2021/04/11 09:04:12;;;;;;;3.90;2.20;;;;;;;17.28;39.50;97328.53;5058046;28;20324;-69
2021/04/11 09:06:58;;;;;;;2.80;2.47;;;;;;;16.59;40.49;97325.91;5060430;28;20195;-69
2021/04/11 09:09:44;;;;;;;3.43;2.30;;;;;;;16.67;41.47;97324.78;5062252;28;20894;-69
2021/04/11 09:12:19;;;;;;;4.00;2.20;;;;;;;16.86;39.81;97320.31;5065892;28;20198;-69
2021/04/11 09:14:58;;;;;;;2.60;2.40;;;;;;;16.75;40.55;97314.63;5063151;28;20202;-69
2021/04/11 09:17:57;;;;;;;1.97;1.83;;;;;;;16.99;40.00;97317.53;5063188;28;20207;-69
2021/04/11 09:20:27;;;;;;;2.70;2.50;;;;;;;16.99;39.96;97316.69;5061271;28;20247;-67
2021/04/11 09:23:08;;;;;;;2.13;2.03;;;;;;;16.73;40.35;97321.25;5062591;28;20199;-68
2021/04/11 09:25:36;;;;;;;3.10;2.20;;;;;;;16.61;41.92;97323.81;5063123;28;20203;-68
2021/04/11 09:28:40;;;;;;;3.53;1.80;;;;;;;16.76;41.82;97320.81;5060174;28;20202;-69
2021/04/11 09:31:35;;;;;;;3.23;2.27;;;;;;;16.92;40.72;97322.09;5015846;28;20321;-73
2021/04/11 09:34:16;;;;;;;1.60;1.60;;;;;;;16.84;40.75;97317.84;5061645;28;20199;-75
2021/04/11 09:36:47;;;;;;;4.87;2.20;;;;;;;16.79;40.72;97315.00;5060782;28;20208;-75
2021/04/11 09:39:33;;;;;;;1.80;1.70;;;;;;;17.01;40.13;97307.41;5059843;28;20670;-75
2021/04/11 09:42:12;;;;;;;2.97;1.67;;;;;;;17.09;40.47;97310.81;5063422;28;20210;-75
2021/04/11 09:45:03;;;;;;;2.40;2.00;;;;;;;17.20;40.16;97316.25;5064691;28;20202;-74
2021/04/11 09:47:38;;;;;;;2.10;1.90;;;;;;;17.38;40.38;97317.28;5062734;28;20209;-75
2021/04/11 09:50:14;;;;;;;1.73;1.63;;;;;;;17.13;40.01;97310.16;5059375;28;20313;-74
2021/04/11 09:52:56;;;;;;;1.63;1.53;;;;;;;17.06;39.72;97304.06;5063504;28;20422;-74
2021/04/11 09:55:25;;;;;;;2.30;2.10;;;;;;;17.22;39.74;97302.63;5061326;28;20577;-74
2021/04/11 09:58:23;;;;;;;1.80;1.70;;;;;;;16.78;40.34;97300.81;5062131;28;20203;-74
2021/04/11 10:00:54;;;;;;;2.20;2.00;;;;;;;17.12;40.55;97302.34;5029403;28;20745;-75
2021/04/11 10:03:43;;;;;;;3.10;2.40;;;;;;;17.37;40.21;97288.88;5063856;28;20202;-74
2021/04/11 10:06:27;;;;;;;2.27;2.17;;;;;;;17.62;39.39;97285.25;5060163;28;20421;-74
2021/04/11 10:09:19;;;;;;;2.20;2.10;;;;;;;17.56;39.06;97288.84;5060043;28;20674;-74
2021/04/11 10:12:09;;;;;;;2.77;2.00;;;;;;;17.52;39.11;97291.16;5061759;28;20309;-74
2021/04/11 10:14:54;;;;;;;2.30;2.20;;;;;;;17.83;39.46;97291.97;5053304;28;20881;-73
2021/04/11 10:17:40;;;;;;;2.87;2.07;;;;;;;18.42;38.15;97282.44;5060718;28;20310;-73
2021/04/11 10:20:14;;;;;;;2.13;1.87;;;;;;;18.34;37.60;97286.28;5057341;28;20227;-74
2021/04/11 10:22:45;;;;;;;3.17;2.20;;;;;;;18.45;37.77;97295.41;5060165;28;20209;-73
2021/04/11 10:25:23;;;;;;;1.70;1.60;;;;;;;18.50;39.26;97288.28;5061823;28;20293;-74
2021/04/11 10:27:59;;;;;;;2.13;2.00;;;;;;;18.73;37.70;97285.84;5058436;28;20240;-73
2021/04/11 10:30:26;;;;;;;2.63;2.13;;;;;;;18.23;37.77;97290.59;5058081;28;20330;-73
2021/04/11 10:32:57;;;;;;;1.97;1.87;;;;;;;18.28;38.58;97289.91;5061134;28;20267;-74
2021/04/11 10:35:28;;;;;;;3.07;1.63;;;;;;;19.13;37.90;97282.44;5063160;28;20234;-76
2021/04/11 10:37:57;;;;;;;2.20;2.10;;;;;;;19.92;36.43;97283.72;5061064;28;20786;-73
2021/04/11 10:40:38;;;;;;;2.60;2.40;;;;;;;20.33;34.66;97277.38;5059463;28;20234;-73
2021/04/11 10:43:15;;;;;;;1.90;1.80;;;;;;;20.74;33.67;97278.00;5061804;28;20309;-74
2021/04/11 10:45:45;;;;;;;2.03;1.90;;;;;;;21.48;32.81;97283.28;5058404;28;20209;-74
2021/04/11 10:48:39;;;;;;;1.60;1.50;;;;;;;21.60;32.79;97275.03;5060459;28;20211;-74
2021/04/11 10:51:42;;;;;;;1.30;1.27;;;;;;;21.04;32.93;97278.69;5060955;28;20314;-74
2021/04/11 10:54:23;;;;;;;1.87;1.67;;;;;;;21.25;33.12;97274.38;5047958;28;20211;-74
2021/04/11 10:57:02;;;;;;;1.50;1.40;;;;;;;19.71;33.24;97290.56;5062505;28;20207;-74
2021/04/11 10:59:53;;;;;;;1.73;1.50;;;;;;;20.50;33.41;97283.56;5062963;28;20250;-74
2021/04/11 11:02:33;;;;;;;1.97;1.87;;;;;;;20.46;33.47;97277.03;5056900;28;20207;-75
2021/04/11 11:05:23;;;;;;;2.00;1.80;;;;;;;19.18;34.33;97279.06;5058752;28;20215;-74
2021/04/11 11:08:16;;;;;;;1.47;1.47;;;;;;;19.02;35.46;97273.34;5061330;28;20238;-72
2021/04/11 11:10:55;;;;;;;2.70;2.10;;;;;;;19.90;35.15;97275.06;5060923;28;20231;-73
2021/04/11 11:13:31;;;;;;;1.90;1.80;;;;;;;19.60;35.22;97270.75;5060242;28;20206;-74
2021/04/11 11:16:07;;;;;;;3.03;1.90;;;;;;;19.22;35.25;97269.47;5061765;28;20202;-74
2021/04/11 11:19:17;;;;;;;3.37;3.07;;;;;;;19.34;35.29;97277.50;5061239;28;20202;-74
2021/04/11 11:22:24;;;;;;;2.67;1.93;;;;;;;19.49;35.46;97263.50;5058054;28;20203;-74
2021/04/11 11:25:18;;;;;;;2.30;2.20;;;;;;;19.33;34.90;97275.88;5025988;28;20237;-73
2021/04/11 11:28:20;;;;;;;1.80;1.70;;;;;;;19.98;34.20;97256.91;5061198;28;20203;-75
2021/04/11 11:31:06;;;;;;;2.27;1.83;;;;;;;20.21;34.81;97264.00;5061049;28;20226;-74
2021/04/11 11:33:45;;;;;;;2.17;2.07;;;;;;;20.58;33.59;97262.66;5060191;28;20207;-74
2021/04/11 11:36:24;;;;;;;1.93;1.83;;;;;;;20.54;33.61;97271.25;5058787;28;20684;-74
2021/04/11 11:38:58;;;;;;;1.60;1.50;;;;;;;20.53;33.08;97266.13;5054320;28;20206;-74
2021/04/11 11:41:30;;;;;;;2.33;2.00;;;;;;;20.57;32.66;97269.13;5060727;28;20211;-73
2021/04/11 11:44:02;;;;;;;1.60;1.50;;;;;;;20.83;32.63;97262.25;5058618;28;20203;-74
2021/04/11 11:46:37;;;;;;;1.87;1.70;;;;;;;20.66;32.85;97263.06;5058490;28;20233;-74
2021/04/11 11:49:14;;;;;;;2.50;1.87;;;;;;;20.54;33.63;97265.06;5055682;28;20222;-69
2021/04/11 11:51:49;;;;;;;1.83;1.73;;;;;;;20.52;33.89;97259.09;5055598;28;20651;-73
2021/04/11 11:54:21;;;;;;;2.67;1.77;;;;;;;20.12;33.61;97258.22;5055937;28;20215;-75
2021/04/11 11:57:03;;;;;;;1.90;1.80;;;;;;;19.95;34.33;97261.72;5055373;28;20225;-74
2021/04/11 11:59:34;;;;;;;2.50;1.50;;;;;;;20.01;33.97;97259.09;5059054;28;20252;-74
2021/04/11 12:02:06;;;;;;;1.70;1.57;;;;;;;20.43;34.87;97263.25;5061211;28;20213;-68
2021/04/11 12:04:43;;;;;;;1.83;1.73;;;;;;;20.88;32.71;97258.81;5059897;28;20207;-68
2021/04/11 12:07:33;;;;;;;1.97;1.87;;;;;;;20.24;33.83;97263.50;5061926;28;20286;-68
2021/04/11 12:10:15;;;;;;;1.63;1.60;;;;;;;19.97;34.62;97252.59;5060446;28;20233;-68
2021/04/11 12:12:51;;;;;;;2.73;1.47;;;;;;;19.98;33.20;97254.22;5057614;28;20387;-68
2021/04/11 12:15:23;;;;;;;2.53;1.63;;;;;;;20.60;33.05;97252.47;5061570;28;20274;-68
2021/04/11 12:17:56;;;;;;;1.87;1.60;;;;;;;20.93;33.28;97257.00;5057939;28;20750;-68
2021/04/11 12:20:30;;;;;;;3.97;3.67;;;;;;;21.38;31.48;97260.50;5057743;28;20734;-67